Nearby METAR Reports

 

KMTN - Baltimore/Martin, Maryland, USA
Distance from station: SSE 8mi, 13km
Updated: Sun, 01-Mar-2015 9:45am EST
Light snow, Overcast
Light snow, Overcast
 Wind from SE
Wind: SE 6 mph , 9 km/h
Temperature: 27°F , -3°C
Wind Chill: 20°F , -7°C
Dew Point: 23°F , -5°C
Humidity: 86%
Barometer: 30.66 inHg , 1038.3 hPa
Summary: Light Snow
Clouds: Overcast
Visibility: 3/4 mile , 5 km
Cloud details: Overcast 500 ft
2015/03/01 14:45 KMTN 011445Z 13005KT 3/4SM -SN OVC005 M03/M05 A3066
KDMH - Baltimore/Dwntwn, Maryland, USA
Distance from station: SW 12mi, 19km
Updated: Sun, 01-Mar-2015 9:54am EST

 
Temperature: 1°F , -17°C
Barometer: 30.63 inHg , 1037.3 hPa
2015/03/01 14:54 KDMH 011454Z AUTO M17/ A3063 RMK AO1 SLP370 P0001 60001 T1172 58019 $
 
KBWI - Balto/Wash Intl, Maryland, USA
Distance from station: SSW 20mi, 33km
Updated: Sun, 01-Mar-2015 9:54am EST
Light snow, Mist, Overcast
Light snow, Mist, Overcast
 Wind from calm
Wind: Calm
Temperature: 25°F , -4°C
Dew Point: 19°F , -7°C
Humidity: 80%
Barometer: 30.63 inHg , 1037.3 hPa
Summary: Light snow, Mist
Clouds: Overcast
Visibility: 1 mile , 2 km
Cloud details: Overcast 2000 ft
2015/03/01 14:54 KBWI 011454Z 00000KT 1SM R10/5000VP6000FT -SN BR OVC020 M04/M07 A3063 RMK AO2 SLP374 P0002 60002 T10441067 58008
KDMW - Carroll Cnty, Maryland, USA
Distance from station: WNW 30mi, 48km
Updated: Sun, 01-Mar-2015 9:30am EST
Light snow, Overcast
Light snow, Overcast
 Wind from S
Wind: S 10 mph , 17 km/h
Temperature: 21°F , -6°C
Wind Chill: 10°F , -12°C
Dew Point: 18°F , -8°C
Humidity: 86%
Barometer: 30.55 inHg , 1034.5 hPa
Summary: Light Snow
Clouds: Overcast
Visibility: 3/4 mile , 5 km
Cloud details: Overcast 600 ft
2015/03/01 14:30 KDMW 011430Z AUTO 18009KT 3/4SM -SN OVC006 M06/M08 A3055 RMK AO2
 
KNAK - Annapolis/Naval, Maryland, USA
Distance from station: S 30mi, 48km
Updated: Sun, 01-Mar-2015 9:54am EST
Overcast
Overcast
 Wind from SSE
Wind: SSE 8 mph , 13 km/h
Temperature: 27°F , -3°C
Wind Chill: 19°F , -7°C
Dew Point: 21°F , -6°C
Humidity: 80%
Barometer: 30.65 inHg , 1037.9 hPa
Clouds: Overcast
Visibility: 3 miles , 5 km
Cloud details: Few Clouds 1500 ft
Mostly cloudy 3800 ft
Overcast 4800 ft
2015/03/01 14:54 KNAK 011454Z AUTO 16007KT 3SM UP FEW015 BKN038 OVC048 M03/M06 A3065 RMK AO2 UPB53SNE53 SLP380 P0001 60001 T10331061 58003
KW29 - Stevensville, Maryland, USA
Distance from station: SSE 31mi, 50km
Updated: Sun, 01-Mar-2015 9:53am EST
Light Snow
Light Snow
 Wind from SSE
Wind: SSE 8 mph , 13 km/h
Temperature: 27°F , -3°C
Wind Chill: 19°F , -7°C
Dew Point: 21°F , -6°C
Humidity: 80%
Barometer: 30.65 inHg , 1037.9 hPa
Summary: Light Snow
Visibility: 5 miles , 8 km
2015/03/01 14:53 KW29 011453Z AUTO 15007KT 5SM -SN M03/M06 A3065 RMK AO1
 
KCGS - College Park, Maryland, USA
Distance from station: SW 38mi, 61km
Updated: Sun, 01-Mar-2015 9:50am EST
Overcast
Overcast
 Wind from S
Wind: S 6 mph , 9 km/h
Temperature: 28°F , -2°C
Wind Chill: 21°F , -6°C
Dew Point: 21°F , -6°C
Humidity: 74%
Barometer: 30.65 inHg , 1037.9 hPa
Clouds: Overcast
Visibility: 1 1/4 miles , 2 km
Cloud details: Mostly cloudy 1200 ft
Overcast 2000 ft
2015/03/01 14:50 KCGS 011450Z AUTO 17005KT 1 1/4SM BKN012 OVC020 M02/M06 A3065 RMK AO1
KGAI - Gaithersburg, Maryland, USA
Distance from station: WSW 40mi, 65km
Updated: Sun, 01-Mar-2015 9:55am EST
Overcast
Overcast
 Wind from SSE
Wind: SSE 7 mph , 11 km/h
Temperature: 23°F , -5°C
Wind Chill: 15°F , -9°C
Dew Point: 18°F , -8°C
Humidity: 80%
Barometer: 30.62 inHg , 1036.9 hPa
Clouds: Overcast
Visibility: 1 1/4 miles , 2 km
Cloud details: Overcast 1300 ft
2015/03/01 14:55 KGAI 011455Z AUTO 16006KT 1 1/4SM OVC013 M05/M08 A3062 RMK AO1 57010
 
KTHV - York, Pennsylvania, USA
Distance from station: NNW 40mi, 65km
Updated: Sun, 01-Mar-2015 9:53am EST
Light snow, Mist, Overcast
Light snow, Mist, Overcast
 Wind from varies
Wind: varies 5 mph , 7 km/h
Temperature: 23°F , -5°C
Wind Chill: 17°F , -8°C
Dew Point: 19°F , -7°C
Humidity: 86%
Barometer: 30.56 inHg , 1034.9 hPa
Summary: Light snow, Mist
Clouds: Overcast
Visibility: 1 mile , 2 km
Cloud details: Mostly cloudy 2400 ft
Mostly cloudy 3000 ft
Overcast 3500 ft
2015/03/01 14:53 KTHV 011453Z AUTO VRB04KT 1SM -SN BR BKN024 BKN030 OVC035 M05/M07 A3056 RMK AO2 SLP359 P0000 60000 T10501072 56010
KFDK - Frederick, Maryland, USA
Distance from station: W 47mi, 75km
Updated: Sun, 01-Mar-2015 9:49am EST
Light snow, Overcast
Light snow, Overcast
 Wind from S
Wind: S 8 mph , 13 km/h
Temperature: 27°F , -3°C
Wind Chill: 19°F , -7°C
Dew Point: 19°F , -7°C
Humidity: 74%
Barometer: 30.61 inHg , 1036.6 hPa
Summary: Light Snow
Clouds: Overcast
Visibility: 1 1/2 miles , 2 km
Cloud details: Mostly cloudy 2700 ft
Overcast 3400 ft
2015/03/01 14:49 KFDK 011449Z 19007KT 1 1/2SM -SN BKN027 OVC034 M03/M07 A3061
 
KESN - Easton/Newnam, Maryland, USA
Distance from station: SSE 48mi, 78km
Updated: Sun, 01-Mar-2015 9:55am EST
Light snow, Overcast
Light snow, Overcast
 Wind from ESE
Wind: ESE 5 mph , 7 km/h
Temperature: 27°F , -3°C
Wind Chill: 21°F , -6°C
Dew Point: 23°F , -5°C
Humidity: 86%
Barometer: 30.68 inHg , 1038.9 hPa
Summary: Light Snow
Clouds: Overcast
Visibility: 3 miles , 5 km
Cloud details: Partly cloudy 800 ft
Mostly cloudy 1200 ft
Overcast 4200 ft
2015/03/01 14:55 KESN 011455Z COR 12004KT 3SM -SN SCT008 BKN012 OVC042 M03/M05 A3068
KDCA - Washington/Natl, Washington D.c., USA
Distance from station: SW 49mi, 79km
Updated: Sun, 01-Mar-2015 9:59am EST

 Wind from S
Wind: S 8 mph , 13 km/h
Visibility: 5 miles , 8 km
2015/03/01 14:59 KDCA 011459Z 19007KT 5SM -RAPL OVC033 M02/M06 A3065 RMK AO2 P0001
 
KLNS - Lancaster, Pennsylvania, USA
Distance from station: N 49mi, 79km
Updated: Sun, 01-Mar-2015 9:53am EST
Light snow, Mist, Overcast
Light snow, Mist, Overcast
 Wind from S
Wind: S 5 mph , 7 km/h
Temperature: 21°F , -6°C
Wind Chill: 14°F , -10°C
Dew Point: 18°F , -8°C
Humidity: 86%
Barometer: 30.58 inHg , 1035.6 hPa
Summary: Light snow, Mist
Clouds: Overcast
Visibility: 1 mile , 2 km
Cloud details: Few Clouds 1700 ft
Overcast 2800 ft
2015/03/01 14:53 KLNS 011453Z 19004KT 1SM -SN BR FEW017 OVC028 M06/M08 A3058 RMK AO2 SLP362 P0000 60000 T10561078 58009
KILG - Wilmington, Delaware, USA
Distance from station: ENE 50mi, 81km
Updated: Sun, 01-Mar-2015 9:51am EST
Overcast
Overcast
 Wind from S
Wind: S 13 mph , 20 km/h
Temperature: 27°F , -3°C
Wind Chill: 16°F , -9°C
Dew Point: 12°F , -11°C
Humidity: 54%
Barometer: 30.65 inHg , 1037.9 hPa
Clouds: Overcast
Visibility: 10 miles , 16 km
Cloud details: Overcast 4500 ft
2015/03/01 14:51 KILG 011451Z 18011KT 10SM OVC045 M03/M11 A3065 RMK AO2 SLP379 T10281111 58007